Time,TemperatureF,DewpointF,PressureIn,WindDirection,WindDirectionDegrees,WindSpeedMPH,WindSpeedGustMPH,Humidity,HourlyPrecipIn,Conditions,Clouds,dailyrainin,SoftwareType,DateUTC
2013-02-02 00:10:00,10.0,4.8,30.41,South,189,0.0,0.0,79,0.00,,,0.00,VWS V12.07,2013-02-02 05:10:00,
2013-02-02 00:29:00,10.2,5.0,30.41,South,189,0.0,0.0,79,0.00,,,0.00,VWS V12.07,2013-02-02 05:29:00,
2013-02-02 00:40:00,10.7,5.8,30.39,South,189,0.0,0.0,80,0.00,,,0.00,VWS V12.07,2013-02-02 05:40:00,
2013-02-02 00:59:00,10.9,5.9,30.39,South,189,0.0,1.0,80,0.00,,,0.00,VWS V12.07,2013-02-02 05:59:00,
2013-02-02 01:10:00,10.9,5.9,30.39,South,189,0.0,0.0,80,0.00,,,0.00,VWS V12.07,2013-02-02 06:10:00,
2013-02-02 01:29:00,10.9,5.9,30.39,South,189,0.0,0.0,80,0.00,,,0.00,VWS V12.07,2013-02-02 06:29:00,
2013-02-02 01:40:00,10.9,5.9,30.39,South,189,0.0,0.0,80,0.00,,,0.00,VWS V12.07,2013-02-02 06:40:00,
2013-02-02 01:59:00,10.9,5.7,30.38,South,189,0.0,0.0,79,0.00,,,0.00,VWS V12.07,2013-02-02 06:59:00,
2013-02-02 02:10:00,11.1,5.9,30.38,South,189,0.0,2.0,79,0.00,,,0.00,VWS V12.07,2013-02-02 07:10:00,
2013-02-02 02:29:00,11.1,6.2,30.37,South,189,0.0,0.0,80,0.00,,,0.00,VWS V12.07,2013-02-02 07:29:00,
2013-02-02 02:40:00,11.4,6.4,30.37,South,189,0.0,2.0,80,0.00,,,0.00,VWS V12.07,2013-02-02 07:40:00,
2013-02-02 02:59:00,11.7,6.5,30.37,South,189,0.0,2.0,79,0.00,,,0.00,VWS V12.07,2013-02-02 07:59:00,
2013-02-02 03:10:00,11.6,6.4,30.37,South,189,0.0,0.0,79,0.00,,,0.00,VWS V12.07,2013-02-02 08:10:00,
2013-02-02 03:29:00,11.4,6.4,30.36,South,189,0.0,0.0,80,0.00,,,0.00,VWS V12.07,2013-02-02 08:29:00,
2013-02-02 03:40:00,11.1,6.4,30.37,South,189,0.0,0.0,81,0.00,,,0.00,VWS V12.07,2013-02-02 08:40:00,
2013-02-02 03:59:00,11.1,6.4,30.36,South,189,0.0,0.0,81,0.00,,,0.00,VWS V12.07,2013-02-02 08:59:00,
2013-02-02 04:10:00,10.9,6.2,30.36,South,189,0.0,0.0,81,0.00,,,0.00,VWS V12.07,2013-02-02 09:10:00,
2013-02-02 04:29:00,10.9,6.5,30.36,South,189,0.0,0.0,82,0.00,,,0.00,VWS V12.07,2013-02-02 09:29:00,
2013-02-02 04:40:00,10.9,6.8,30.36,South,189,0.0,0.0,83,0.00,,,0.00,VWS V12.07,2013-02-02 09:40:00,
2013-02-02 04:59:00,10.9,6.8,30.35,South,189,0.0,0.0,83,0.00,,,0.00,VWS V12.07,2013-02-02 09:59:00,
2013-02-02 05:10:00,11.1,7.0,30.35,South,189,0.0,0.0,83,0.00,,,0.00,VWS V12.07,2013-02-02 10:10:00,
2013-02-02 05:29:00,11.2,7.1,30.36,South,189,0.0,0.0,83,0.00,,,0.00,VWS V12.07,2013-02-02 10:29:00,
2013-02-02 05:40:00,11.2,7.1,30.36,South,189,0.0,0.0,83,0.00,,,0.00,VWS V12.07,2013-02-02 10:40:00,
2013-02-02 05:59:00,11.4,7.2,30.36,South,189,0.0,0.0,83,0.00,,,0.00,VWS V12.07,2013-02-02 10:59:00,
2013-02-02 06:10:00,11.6,7.4,30.36,South,189,0.0,0.0,83,0.00,,,0.00,VWS V12.07,2013-02-02 11:10:00,
2013-02-02 06:29:00,11.4,7.2,30.37,South,189,0.0,0.0,83,0.00,,,0.00,VWS V12.07,2013-02-02 11:29:00,
2013-02-02 06:40:00,11.2,7.3,30.38,South,189,0.0,0.0,84,0.00,,,0.00,VWS V12.07,2013-02-02 11:40:00,
2013-02-02 06:59:00,11.2,7.3,30.39,South,189,0.0,0.0,84,0.00,,,0.00,VWS V12.07,2013-02-02 11:59:00,
2013-02-02 07:10:00,11.4,7.5,30.39,South,189,0.0,0.0,84,0.00,,,0.00,VWS V12.07,2013-02-02 12:10:00,
2013-02-02 07:29:00,11.2,7.3,30.39,South,189,0.0,0.0,84,0.00,,,0.00,VWS V12.07,2013-02-02 12:29:00,
2013-02-02 07:40:00,11.4,7.5,30.39,South,189,0.0,0.0,84,0.00,,,0.00,VWS V12.07,2013-02-02 12:40:00,
2013-02-02 07:59:00,11.4,7.5,30.39,South,189,0.0,0.0,84,0.00,,,0.00,VWS V12.07,2013-02-02 12:59:00,
2013-02-02 08:10:00,12.8,9.1,30.40,South,189,0.0,0.0,85,0.00,,,0.00,VWS V12.07,2013-02-02 13:10:00,
2013-02-02 08:29:00,14.9,10.9,30.38,South,189,0.0,0.0,84,0.00,,,0.00,VWS V12.07,2013-02-02 13:29:00,
2013-02-02 08:40:00,16.1,10.2,30.38,South,189,0.0,0.0,77,0.00,,,0.00,VWS V12.07,2013-02-02 13:40:00,
2013-02-02 08:59:00,16.5,10.3,30.38,South,189,0.0,0.0,76,0.00,,,0.00,VWS V12.07,2013-02-02 13:59:00,
2013-02-02 09:10:00,18.6,10.1,30.38,South,189,0.0,1.0,69,0.00,,,0.00,VWS V12.07,2013-02-02 14:10:00,
2013-02-02 09:29:00,20.2,8.6,30.37,WSW,258,2.0,5.0,60,0.00,,,0.00,VWS V12.07,2013-02-02 14:29:00,
2013-02-02 09:40:00,22.1,7.6,30.37,SSW,195,0.0,6.0,53,0.00,,,0.00,VWS V12.07,2013-02-02 14:40:00,
2013-02-02 09:59:00,23.3,7.4,30.35,SSW,192,1.0,6.0,50,0.00,,,0.00,VWS V12.07,2013-02-02 14:59:00,
2013-02-02 10:10:00,24.2,8.7,30.34,SSW,212,0.0,5.0,51,0.00,,,0.00,VWS V12.07,2013-02-02 15:10:00,
2013-02-02 10:29:00,25.7,8.7,30.34,SSW,211,0.0,4.0,48,0.00,,,0.00,VWS V12.07,2013-02-02 15:29:00,
2013-02-02 10:40:00,26.4,7.5,30.32,ESE,108,1.0,6.0,44,0.00,,,0.00,VWS V12.07,2013-02-02 15:40:00,
2013-02-02 10:59:00,26.6,8.1,30.31,SE,142,0.0,4.0,45,0.00,,,0.00,VWS V12.07,2013-02-02 15:59:00,
2013-02-02 11:10:00,27.8,10.7,30.31,SW,219,0.0,3.0,48,0.00,,,0.00,VWS V12.07,2013-02-02 16:10:00,
2013-02-02 11:29:00,28.1,9.5,30.29,ESE,112,2.0,5.0,45,0.00,,,0.00,VWS V12.07,2013-02-02 16:29:00,
2013-02-02 11:40:00,29.1,10.4,30.28,SW,232,3.0,7.0,45,0.00,,,0.00,VWS V12.07,2013-02-02 16:40:00,
2013-02-02 11:59:00,28.5,10.9,30.27,SSW,206,0.0,6.0,47,0.00,,,0.00,VWS V12.07,2013-02-02 16:59:00,
2013-02-02 12:10:00,28.2,12.4,30.27,South,180,4.0,10.0,51,0.00,,,0.00,VWS V12.07,2013-02-02 17:10:00,
2013-02-02 12:29:00,29.0,11.8,30.26,South,191,4.0,10.0,48,0.00,,,0.00,VWS V12.07,2013-02-02 17:29:00,
2013-02-02 12:40:00,29.5,12.2,30.26,WSW,242,3.0,7.0,48,0.00,,,0.00,VWS V12.07,2013-02-02 17:40:00,
2013-02-02 12:59:00,29.3,11.6,30.24,South,190,0.0,7.0,47,0.00,,,0.00,VWS V12.07,2013-02-02 17:59:00,
2013-02-02 13:10:00,29.4,12.6,30.23,South,188,0.0,3.0,49,0.00,,,0.00,VWS V12.07,2013-02-02 18:10:00,
2013-02-02 13:29:00,30.1,14.6,30.21,South,188,3.0,3.0,52,0.00,,,0.00,VWS V12.07,2013-02-02 18:29:00,
2013-02-02 13:40:00,30.3,16.5,30.19,SSE,163,2.0,5.0,56,0.00,,,0.00,VWS V12.07,2013-02-02 18:40:00,
2013-02-02 13:59:00,30.1,15.9,30.19,South,188,1.0,6.0,55,0.00,,,0.00,VWS V12.07,2013-02-02 18:59:00,
2013-02-02 14:10:00,29.3,17.9,30.19,West,265,1.0,11.0,62,0.00,,,0.00,VWS V12.07,2013-02-02 19:10:00,
2013-02-02 14:29:00,28.7,18.8,30.18,West,262,4.0,11.0,66,0.00,,,0.00,VWS V12.07,2013-02-02 19:29:00,
2013-02-02 14:40:00,27.3,20.8,30.17,WSW,254,9.0,11.0,76,0.00,,,0.00,VWS V12.07,2013-02-02 19:40:00,
2013-02-02 14:59:00,27.3,21.4,30.18,West,263,5.0,10.0,78,0.00,,,0.00,VWS V12.07,2013-02-02 19:59:00,
2013-02-02 15:10:00,28.5,21.9,30.15,WSW,240,3.0,6.0,76,0.00,,,0.00,VWS V12.07,2013-02-02 20:10:00,
2013-02-02 15:29:00,28.7,21.1,30.15,West,266,2.0,7.0,73,0.00,,,0.00,VWS V12.07,2013-02-02 20:29:00,
2013-02-02 15:40:00,28.1,22.1,30.15,WSW,242,5.0,8.0,78,0.00,,,0.00,VWS V12.07,2013-02-02 20:40:00,
2013-02-02 15:59:00,27.9,22.2,30.15,WSW,254,1.0,8.0,79,0.00,,,0.00,VWS V12.07,2013-02-02 20:59:00,
2013-02-02 16:10:00,28.4,21.5,30.15,WSW,248,1.0,7.0,75,0.00,,,0.00,VWS V12.07,2013-02-02 21:10:00,
2013-02-02 16:29:00,28.5,20.6,30.14,WSW,257,4.0,6.0,72,0.00,,,0.00,VWS V12.07,2013-02-02 21:29:00,
2013-02-02 16:40:00,28.1,20.9,30.14,West,275,3.0,6.0,74,0.00,,,0.00,VWS V12.07,2013-02-02 21:40:00,
2013-02-02 16:59:00,27.6,21.0,30.14,WSW,257,3.0,9.0,76,0.00,,,0.00,VWS V12.07,2013-02-02 21:59:00,
2013-02-02 17:10:00,26.9,21.6,30.14,WSW,253,2.0,4.0,80,0.00,,,0.00,VWS V12.07,2013-02-02 22:10:00,
2013-02-02 17:29:00,26.7,21.7,30.14,WSW,251,1.0,5.0,81,0.00,,,0.00,VWS V12.07,2013-02-02 22:29:00,
2013-02-02 17:40:00,26.4,21.1,30.14,WSW,252,0.0,4.0,80,0.00,,,0.00,VWS V12.07,2013-02-02 22:40:00,
2013-02-02 17:59:00,26.4,21.1,30.13,WSW,252,0.0,1.0,80,0.00,,,0.00,VWS V12.07,2013-02-02 22:59:00,
2013-02-02 18:10:00,26.3,21.0,30.12,WSW,252,0.0,0.0,80,0.00,,,0.00,VWS V12.07,2013-02-02 23:10:00,
2013-02-02 18:29:00,26.1,21.1,30.12,WSW,252,0.0,0.0,81,0.00,,,0.00,VWS V12.07,2013-02-02 23:29:00,
2013-02-02 18:40:00,26.1,21.6,30.11,WSW,252,0.0,2.0,83,0.00,,,0.00,VWS V12.07,2013-02-02 23:40:00,
2013-02-02 18:59:00,26.0,21.6,30.11,WSW,251,0.0,2.0,83,0.00,,,0.00,VWS V12.07,2013-02-02 23:59:00,
2013-02-02 19:10:00,25.4,21.2,30.11,WSW,252,0.0,2.0,84,0.00,,,0.00,VWS V12.07,2013-02-03 00:10:00,
2013-02-02 19:29:00,25.4,21.8,30.12,WSW,252,0.0,2.0,86,0.00,,,0.00,VWS V12.07,2013-02-03 00:29:00,
2013-02-02 19:40:00,25.6,22.3,30.12,WSW,252,0.0,0.0,87,0.00,,,0.00,VWS V12.07,2013-02-03 00:40:00,
2013-02-02 19:59:00,25.6,22.3,30.11,WSW,252,0.0,0.0,87,0.00,,,0.00,VWS V12.07,2013-02-03 00:59:00,
2013-02-02 20:10:00,25.6,22.5,30.11,WSW,251,0.0,1.0,88,0.00,,,0.00,VWS V12.07,2013-02-03 01:10:00,
2013-02-02 20:29:00,25.6,22.8,30.09,WSW,251,0.0,0.0,89,0.00,,,0.00,VWS V12.07,2013-02-03 01:29:00,
2013-02-02 20:40:00,25.7,22.9,30.10,WSW,251,0.0,0.0,89,0.00,,,0.00,VWS V12.07,2013-02-03 01:40:00,
2013-02-02 20:59:00,25.6,23.1,30.09,WSW,251,0.0,0.0,90,0.00,,,0.00,VWS V12.07,2013-02-03 01:59:00,
2013-02-02 21:10:00,25.7,23.2,30.09,WSW,251,0.0,3.0,90,0.00,,,0.00,VWS V12.07,2013-02-03 02:10:00,
2013-02-02 21:29:00,25.8,23.5,30.06,WSW,251,0.0,2.0,91,0.00,,,0.00,VWS V12.07,2013-02-03 02:29:00,
2013-02-02 21:40:00,26.3,24.3,30.06,SW,219,2.0,2.0,92,0.00,,,0.00,VWS V12.07,2013-02-03 02:40:00,
2013-02-02 21:59:00,26.7,25.0,30.06,NW,309,2.0,5.0,93,0.00,,,0.00,VWS V12.07,2013-02-03 02:59:00,
2013-02-02 22:10:00,29.4,26.8,30.05,West,270,1.0,15.0,90,0.00,,,0.00,VWS V12.07,2013-02-03 03:10:00,
2013-02-02 22:29:00,29.4,26.8,30.03,West,266,4.0,12.0,90,0.00,,,0.00,VWS V12.07,2013-02-03 03:29:00,
2013-02-02 22:40:00,29.3,26.7,30.02,West,263,4.0,7.0,90,0.00,,,0.00,VWS V12.07,2013-02-03 03:40:00,
2013-02-02 22:59:00,29.4,26.6,30.02,NW,309,4.0,12.0,89,0.00,,,0.00,VWS V12.07,2013-02-03 03:59:00,
2013-02-02 23:10:00,29.5,26.1,30.02,West,268,5.0,13.0,87,0.00,,,0.00,VWS V12.07,2013-02-03 04:10:00,
2013-02-02 23:29:00,29.5,25.8,30.01,WSW,243,6.0,13.0,86,0.00,,,0.00,VWS V12.07,2013-02-03 04:29:00,
2013-02-02 23:40:00,29.7,25.8,30.00,WNW,289,5.0,13.0,85,0.00,,,0.00,VWS V12.07,2013-02-03 04:40:00,
2013-02-02 23:59:00,29.7,25.8,29.99,NW,326,4.0,16.0,85,0.00,,,0.00,VWS V12.07,2013-02-03 04:59:00,